createdAt,value
2022-10-11T00:00:46.472Z,3.07
2022-10-11T00:03:14.574Z,3.10
2022-10-11T00:05:43.945Z,3.13
2022-10-11T00:08:12.002Z,3.27
2022-10-11T00:10:38.881Z,3.17
2022-10-11T00:13:06.333Z,3.30
2022-10-11T00:15:33.531Z,3.30
2022-10-11T00:18:05.135Z,2.97
2022-10-11T00:20:32.184Z,3.93
2022-10-11T00:22:58.816Z,3.20
2022-10-11T00:25:25.632Z,3.73
2022-10-11T00:27:52.247Z,4.13
2022-10-11T00:30:19.010Z,3.30
2022-10-11T00:32:45.659Z,3.37
2022-10-11T00:35:12.384Z,3.13
2022-10-11T00:37:39.798Z,3.37
2022-10-11T00:40:13.038Z,3.20
2022-10-11T00:42:39.851Z,4.30
2022-10-11T00:45:27.513Z,3.60
2022-10-11T00:48:04.617Z,4.43
2022-10-11T00:50:35.117Z,3.80
2022-10-11T00:53:08.534Z,4.03
2022-10-11T00:55:40.501Z,4.93
2022-10-11T00:58:08.115Z,4.77
2022-10-11T01:00:34.866Z,3.83
2022-10-11T01:03:02.506Z,3.93
2022-10-11T01:05:30.661Z,3.70
2022-10-11T01:08:00.126Z,4.13
2022-10-11T01:10:27.677Z,4.27
2022-10-11T01:13:38.658Z,4.10
2022-10-11T01:16:14.261Z,3.43
2022-10-11T01:18:48.511Z,3.87
2022-10-11T01:21:43.175Z,3.87
2022-10-11T01:24:34.878Z,3.70
2022-10-11T01:27:32.535Z,3.90
2022-10-11T01:30:19.452Z,4.60
2022-10-11T01:32:54.580Z,4.20
2022-10-11T01:35:24.763Z,4.37
2022-10-11T01:38:19.685Z,3.90
2022-10-11T01:40:55.302Z,4.50
2022-10-11T01:43:24.449Z,4.80
2022-10-11T01:45:54.432Z,5.10
2022-10-11T01:48:21.233Z,5.77
2022-10-11T01:50:54.017Z,4.50
2022-10-11T01:53:33.069Z,4.33
2022-10-11T01:56:35.038Z,5.10
2022-10-11T01:59:28.316Z,5.00
2022-10-11T02:02:01.119Z,4.40
2022-10-11T02:04:54.258Z,4.30
2022-10-11T02:07:33.973Z,4.80
2022-10-11T02:10:11.919Z,4.50
2022-10-11T02:12:49.172Z,4.40
2022-10-11T02:15:17.558Z,4.20
2022-10-11T02:17:52.866Z,4.70
2022-10-11T02:20:22.919Z,4.23
2022-10-11T02:22:55.188Z,4.10
2022-10-11T02:25:26.467Z,4.00
2022-10-11T02:27:57.644Z,4.07
2022-10-11T02:30:24.384Z,4.07
2022-10-11T02:32:53.841Z,4.17
2022-10-11T02:35:24.227Z,4.50
2022-10-11T02:37:57.646Z,4.67
2022-10-11T02:40:24.366Z,4.70
2022-10-11T02:43:04.898Z,4.07
2022-10-11T02:46:05.363Z,4.53
2022-10-11T02:48:33.536Z,4.23
2022-10-11T02:51:00.244Z,4.80
2022-10-11T02:53:27.241Z,4.33
2022-10-11T02:55:55.235Z,4.60
2022-10-11T02:58:22.999Z,4.83
2022-10-11T03:00:49.766Z,4.57
2022-10-11T03:03:16.527Z,4.67
2022-10-11T03:05:43.931Z,4.07
2022-10-11T03:08:13.540Z,4.27
2022-10-11T03:10:40.273Z,4.43
2022-10-11T03:13:07.210Z,4.37
2022-10-11T03:15:34.012Z,4.20
2022-10-11T03:18:00.987Z,4.27
2022-10-11T03:20:27.692Z,4.10
2022-10-11T03:22:54.374Z,5.70
2022-10-11T03:25:21.052Z,5.73
2022-10-11T03:27:47.717Z,5.97
2022-10-11T03:30:18.354Z,5.57
2022-10-11T03:32:45.205Z,4.97
2022-10-11T03:35:11.916Z,5.30
2022-10-11T03:37:38.611Z,4.47
2022-10-11T03:40:08.303Z,5.73
2022-10-11T03:42:35.627Z,5.20
2022-10-11T03:45:04.968Z,7.67
2022-10-11T03:47:32.088Z,7.47
2022-10-11T03:49:58.760Z,7.50
2022-10-11T03:52:25.574Z,7.37
2022-10-11T03:54:52.376Z,6.43
2022-10-11T03:57:19.270Z,6.23
2022-10-11T03:59:46.034Z,7.27
2022-10-11T04:02:12.837Z,7.47
2022-10-11T04:04:39.583Z,6.50
2022-10-11T04:07:06.352Z,5.23
2022-10-11T04:09:33.053Z,6.53
2022-10-11T04:11:59.712Z,6.90
2022-10-11T04:14:26.727Z,6.20
2022-10-11T04:16:55.553Z,6.17
2022-10-11T04:19:24.114Z,7.63
2022-10-11T04:21:50.752Z,6.40
2022-10-11T04:24:17.479Z,6.90
2022-10-11T04:26:44.188Z,6.30
2022-10-11T04:29:11.849Z,6.20
2022-10-11T04:31:38.543Z,6.50
2022-10-11T04:34:05.176Z,5.43
2022-10-11T04:36:33.902Z,6.37
2022-10-11T04:39:01.634Z,5.57
2022-10-11T04:41:29.459Z,5.57
2022-10-11T04:43:56.211Z,7.60
2022-10-11T04:46:23.201Z,7.83
2022-10-11T04:48:50.493Z,7.30
2022-10-11T04:51:17.559Z,6.87
2022-10-11T04:53:44.607Z,5.80
2022-10-11T04:56:11.826Z,5.80
2022-10-11T04:58:40.919Z,6.87
2022-10-11T05:01:09.015Z,6.17
2022-10-11T05:03:36.028Z,6.77
2022-10-11T05:06:05.710Z,6.40
2022-10-11T05:08:33.574Z,7.47
2022-10-11T05:11:07.131Z,7.17
2022-10-11T05:13:35.328Z,7.13
2022-10-11T05:16:05.934Z,7.90
2022-10-11T05:18:35.608Z,7.47
2022-10-11T05:21:05.669Z,8.53
2022-10-11T05:23:41.315Z,8.45
2022-10-11T05:26:08.678Z,8.80
2022-10-11T05:28:35.921Z,8.43
2022-10-11T05:31:02.858Z,9.47
2022-10-11T05:33:29.758Z,8.40
2022-10-11T05:35:56.428Z,8.73
2022-10-11T05:38:23.193Z,8.80
2022-10-11T05:40:50.463Z,8.87
2022-10-11T05:43:17.129Z,7.27
2022-10-11T05:45:44.882Z,6.83
2022-10-11T05:48:12.508Z,7.40
2022-10-11T05:50:39.452Z,7.57
2022-10-11T05:53:06.875Z,8.63
2022-10-11T05:55:40.050Z,7.67
2022-10-11T05:58:08.017Z,7.20
2022-10-11T06:00:37.988Z,9.37
2022-10-11T06:03:08.665Z,9.07
2022-10-11T06:05:35.838Z,9.53
2022-10-11T06:08:04.085Z,8.67
2022-10-11T06:10:30.727Z,8.70
2022-10-11T06:12:57.599Z,8.03
2022-10-11T06:15:24.416Z,8.10
2022-10-11T06:17:51.389Z,7.90
2022-10-11T06:20:18.278Z,9.17
2022-10-11T06:22:44.976Z,8.70
2022-10-11T06:25:11.696Z,8.87
2022-10-11T06:27:38.474Z,10.50
2022-10-11T06:30:07.258Z,10.13
2022-10-11T06:32:34.024Z,10.93
2022-10-11T06:35:00.727Z,10.37
2022-10-11T06:37:27.398Z,9.63
2022-10-11T06:39:54.186Z,23.90
2022-10-11T06:42:20.961Z,10.07
2022-10-11T06:44:47.590Z,11.60
2022-10-11T06:47:14.281Z,9.63
2022-10-11T06:49:40.975Z,8.97
2022-10-11T06:52:07.664Z,9.47
2022-10-11T06:54:34.320Z,9.10
2022-10-11T06:57:00.936Z,9.43
2022-10-11T06:59:27.619Z,9.93
2022-10-11T07:01:54.259Z,9.73
2022-10-11T07:04:20.975Z,9.40
2022-10-11T07:06:47.685Z,9.53
2022-10-11T07:09:14.363Z,9.40
2022-10-11T07:11:41.011Z,10.93
2022-10-11T07:14:07.897Z,9.30
2022-10-11T07:16:36.457Z,9.60
2022-10-11T07:19:05.691Z,11.20
2022-10-11T07:21:34.041Z,10.80
2022-10-11T07:24:01.661Z,10.73
2022-10-11T07:26:32.437Z,11.40
2022-10-11T07:29:04.091Z,11.30
2022-10-11T07:31:30.875Z,11.17
2022-10-11T07:33:57.648Z,10.70
2022-10-11T07:36:24.979Z,10.23
2022-10-11T07:38:51.883Z,10.63
2022-10-11T07:41:19.454Z,10.30
2022-10-11T07:43:47.902Z,10.67
2022-10-11T07:46:14.614Z,10.23
2022-10-11T07:48:41.496Z,10.47
2022-10-11T07:51:23.408Z,10.10
2022-10-11T07:53:55.929Z,9.23
2022-10-11T07:56:28.097Z,10.47
2022-10-11T07:58:57.270Z,9.70
2022-10-11T08:01:25.382Z,8.90
2022-10-11T08:03:53.180Z,8.80
2022-10-11T08:06:23.039Z,9.57
2022-10-11T08:08:49.853Z,8.73
2022-10-11T08:11:31.899Z,8.40
2022-10-11T08:13:59.723Z,9.10
2022-10-11T08:16:26.576Z,8.17
2022-10-11T08:18:55.328Z,8.57
2022-10-11T08:21:22.115Z,8.77
2022-10-11T08:23:49.042Z,8.00
2022-10-11T08:26:16.717Z,8.33
2022-10-11T08:28:43.580Z,8.07
2022-10-11T08:31:13.129Z,8.23
2022-10-11T08:33:40.004Z,7.77
2022-10-11T08:36:08.535Z,8.63
2022-10-11T08:38:39.124Z,8.43
2022-10-11T08:41:30.494Z,9.43
2022-10-11T08:44:14.145Z,8.00
2022-10-11T08:46:45.666Z,8.63
2022-10-11T08:49:15.352Z,8.10
2022-10-11T08:51:56.359Z,8.70
2022-10-11T08:55:01.358Z,8.10
2022-10-11T08:57:31.669Z,8.77
2022-10-11T09:00:04.866Z,9.37
2022-10-11T09:03:14.205Z,8.00
2022-10-11T09:06:13.299Z,8.53
2022-10-11T09:09:07.520Z,9.17
2022-10-11T09:11:34.129Z,8.50
2022-10-11T09:14:09.007Z,8.40
2022-10-11T09:16:43.805Z,8.27
2022-10-11T09:19:31.545Z,7.70
2022-10-11T09:22:13.138Z,7.87
2022-10-11T09:25:08.561Z,7.43
2022-10-11T09:28:03.575Z,7.13
2022-10-11T09:30:31.979Z,6.70
2022-10-11T09:33:35.430Z,6.60
2022-10-11T09:36:12.120Z,7.03
2022-10-11T09:38:52.324Z,7.90
2022-10-11T09:41:44.212Z,8.53
2022-10-11T09:44:23.962Z,8.50
2022-10-11T09:46:52.649Z,8.23
2022-10-11T09:49:23.971Z,8.73
2022-10-11T09:51:55.820Z,7.36
2022-10-11T09:54:44.141Z,7.80
2022-10-11T09:57:31.951Z,8.67
2022-10-11T10:00:21.758Z,7.00
2022-10-11T10:02:54.284Z,7.07
2022-10-11T10:05:26.652Z,8.83
2022-10-11T10:08:08.922Z,8.90
2022-10-11T10:10:59.741Z,7.20
2022-10-11T10:13:49.678Z,8.40
2022-10-11T10:16:27.355Z,7.10
2022-10-11T10:19:03.448Z,7.57
2022-10-11T10:21:31.809Z,7.30
2022-10-11T10:24:03.164Z,6.87
2022-10-11T10:26:31.110Z,6.50
2022-10-11T10:29:09.728Z,7.77
2022-10-11T10:32:01.598Z,8.03
2022-10-11T10:34:27.511Z,7.13
2022-10-11T10:37:15.928Z,6.53
2022-10-11T10:39:48.216Z,7.10
2022-10-11T10:42:17.789Z,7.20
2022-10-11T10:44:51.021Z,7.10
2022-10-11T10:47:48.032Z,7.93
2022-10-11T10:50:20.142Z,8.20
2022-10-11T10:53:05.896Z,8.00
2022-10-11T10:55:32.585Z,7.33
2022-10-11T10:58:25.139Z,7.33
2022-10-11T11:01:29.029Z,6.67
2022-10-11T11:04:00.933Z,7.40
2022-10-11T11:06:47.791Z,7.03
2022-10-11T11:09:26.763Z,6.47
2022-10-11T11:12:23.553Z,7.00
2022-10-11T11:15:03.647Z,6.83
2022-10-11T11:17:50.399Z,7.20
2022-10-11T11:20:28.026Z,6.77
2022-10-11T11:23:06.696Z,6.73
2022-10-11T11:25:46.688Z,6.23
2022-10-11T11:28:34.374Z,6.83
2022-10-11T11:31:11.936Z,6.90
2022-10-11T11:34:00.245Z,6.77
2022-10-11T11:36:38.828Z,6.40
2022-10-11T11:39:07.833Z,5.97
2022-10-11T11:41:50.179Z,6.00
2022-10-11T11:44:28.034Z,5.63
2022-10-11T11:47:06.684Z,6.77
2022-10-11T11:49:48.172Z,7.07
2022-10-11T11:52:26.807Z,6.33
2022-10-11T11:55:05.327Z,6.30
2022-10-11T11:58:03.307Z,6.73
2022-10-11T12:00:48.987Z,5.97
2022-10-11T12:03:23.956Z,5.50
2022-10-11T12:06:12.216Z,5.60
2022-10-11T12:08:42.389Z,7.33
2022-10-11T12:11:24.028Z,7.33
2022-10-11T12:13:53.079Z,6.97
2022-10-11T12:16:21.856Z,6.60
2022-10-11T12:19:01.509Z,6.70
2022-10-11T12:21:37.951Z,6.80
2022-10-11T12:24:16.592Z,6.77
2022-10-11T12:26:45.609Z,7.13
2022-10-11T12:29:18.418Z,7.57
2022-10-11T12:31:59.183Z,6.73
2022-10-11T12:34:34.767Z,7.67
2022-10-11T12:37:22.247Z,7.27
2022-10-11T12:39:51.866Z,8.30
2022-10-11T12:42:25.302Z,6.83
2022-10-11T12:45:31.490Z,7.73
2022-10-11T12:48:30.203Z,7.20
2022-10-11T12:51:20.188Z,7.13
2022-10-11T12:54:26.152Z,6.57
2022-10-11T12:57:24.978Z,7.03
2022-10-11T12:59:51.716Z,7.03
2022-10-11T13:02:35.836Z,7.17
2022-10-11T13:05:31.882Z,6.90
2022-10-11T13:08:02.746Z,8.90
2022-10-11T13:10:42.526Z,7.37
2022-10-11T13:13:26.564Z,7.27
2022-10-11T13:15:55.625Z,8.27
2022-10-11T13:18:25.101Z,7.10
2022-10-11T13:20:51.936Z,7.40
2022-10-11T13:23:35.042Z,7.07
2022-10-11T13:26:02.404Z,6.47
2022-10-11T13:28:34.148Z,7.03
2022-10-11T13:31:04.058Z,6.90
2022-10-11T13:33:38.196Z,6.77
2022-10-11T13:36:10.708Z,7.73
2022-10-11T13:38:37.809Z,7.20
2022-10-11T13:41:10.293Z,7.60
2022-10-11T13:43:38.627Z,6.83
2022-10-11T13:46:05.926Z,7.37
2022-10-11T13:48:40.072Z,7.73
2022-10-11T13:51:26.734Z,8.13
2022-10-11T13:54:04.783Z,7.00
2022-10-11T13:56:57.436Z,7.47
2022-10-11T13:59:27.389Z,7.13
2022-10-11T14:02:00.247Z,7.97
2022-10-11T14:04:29.930Z,7.13
2022-10-11T14:07:02.371Z,7.50
2022-10-11T14:09:33.798Z,7.23
2022-10-11T14:12:38.029Z,7.80
2022-10-11T14:15:26.015Z,6.90
2022-10-11T14:17:53.097Z,7.87
2022-10-11T14:20:40.098Z,7.30
2022-10-11T14:23:07.163Z,8.43
2022-10-11T14:25:34.403Z,6.40
2022-10-11T14:28:01.382Z,6.77
2022-10-11T14:30:31.328Z,7.00
2022-10-11T14:33:00.659Z,6.07
2022-10-11T14:35:30.109Z,6.33
2022-10-11T14:37:56.999Z,5.90
2022-10-11T14:40:29.911Z,5.90
2022-10-11T14:42:56.968Z,6.20
2022-10-11T14:45:24.264Z,5.47
2022-10-11T14:47:50.987Z,5.40
2022-10-11T14:50:34.743Z,6.37
2022-10-11T14:53:01.455Z,7.00
2022-10-11T14:55:28.989Z,6.50
2022-10-11T14:57:56.552Z,6.50
2022-10-11T15:00:26.046Z,6.67
2022-10-11T15:02:53.374Z,7.30
2022-10-11T15:05:21.478Z,6.13
2022-10-11T15:07:48.492Z,7.87
2022-10-11T15:10:23.687Z,7.47
2022-10-11T15:12:51.668Z,7.10
2022-10-11T15:15:22.633Z,6.30
2022-10-11T15:17:52.780Z,7.17
2022-10-11T15:20:39.871Z,6.73
2022-10-11T15:23:09.419Z,6.83
2022-10-11T15:25:37.774Z,7.17
2022-10-11T15:28:05.360Z,7.40
2022-10-11T15:30:40.987Z,7.13
2022-10-11T15:33:08.213Z,7.60
2022-10-11T15:35:34.913Z,7.00
2022-10-11T15:38:01.637Z,7.40
2022-10-11T15:40:36.750Z,7.87
2022-10-11T15:43:03.709Z,7.77
2022-10-11T15:45:30.859Z,8.20
2022-10-11T15:47:57.550Z,6.20
2022-10-11T15:50:39.869Z,7.40
2022-10-11T15:53:12.926Z,7.70
2022-10-11T15:55:42.510Z,8.30
2022-10-11T15:58:24.966Z,7.87
2022-10-11T16:00:56.524Z,7.30
2022-10-11T16:03:26.255Z,7.43
2022-10-11T16:05:53.813Z,7.07
2022-10-11T16:08:20.683Z,7.20
2022-10-11T16:10:47.522Z,7.20
2022-10-11T16:13:14.276Z,6.90
2022-10-11T16:15:43.059Z,8.43
2022-10-11T16:18:12.576Z,7.70
2022-10-11T16:20:41.087Z,7.87
2022-10-11T16:23:08.332Z,7.67
2022-10-11T16:25:35.188Z,7.43
2022-10-11T16:28:02.774Z,7.70
2022-10-11T16:30:29.682Z,7.40
2022-10-11T16:32:56.416Z,7.17
2022-10-11T16:35:23.247Z,7.50
2022-10-11T16:37:50.255Z,7.90
2022-10-11T16:40:20.215Z,8.57
2022-10-11T16:42:47.944Z,8.00
2022-10-11T16:45:15.977Z,7.40
2022-10-11T16:47:43.491Z,6.80
2022-10-11T16:50:11.789Z,7.30
2022-10-11T16:52:39.076Z,6.83
2022-10-11T16:55:06.522Z,7.23
2022-10-11T16:57:33.338Z,7.43
2022-10-11T17:00:00.021Z,6.37
2022-10-11T17:02:32.097Z,6.87
2022-10-11T17:04:59.401Z,7.07
2022-10-11T17:07:26.233Z,7.57
2022-10-11T17:09:53.008Z,7.00
2022-10-11T17:12:22.666Z,6.60
2022-10-11T17:14:49.927Z,7.53
2022-10-11T17:17:18.083Z,8.00
2022-10-11T17:19:45.477Z,7.70
2022-10-11T17:22:15.575Z,8.63
2022-10-11T17:24:42.702Z,8.37
2022-10-11T17:27:09.604Z,8.93
2022-10-11T17:29:36.852Z,9.43
2022-10-11T17:32:04.230Z,8.57
2022-10-11T17:34:31.047Z,9.03
2022-10-11T17:36:57.767Z,9.87
2022-10-11T17:39:25.659Z,9.27
2022-10-11T17:41:52.993Z,8.47
2022-10-11T17:44:20.334Z,8.33
2022-10-11T17:46:47.545Z,7.50
2022-10-11T17:49:14.939Z,8.37
2022-10-11T17:51:42.033Z,7.83
2022-10-11T17:54:12.917Z,8.07
2022-10-11T17:56:41.605Z,7.60
2022-10-11T17:59:14.382Z,8.00
2022-10-11T18:01:41.150Z,7.30
2022-10-11T18:04:10.118Z,7.60
2022-10-11T18:06:39.585Z,7.47
2022-10-11T18:09:06.334Z,7.53
2022-10-11T18:11:33.197Z,6.77
2022-10-11T18:14:00.356Z,6.50
2022-10-11T18:16:29.198Z,6.07
2022-10-11T18:18:57.416Z,6.10
2022-10-11T18:21:33.619Z,5.40
2022-10-11T18:24:03.073Z,5.47
2022-10-11T18:26:30.966Z,4.80
2022-10-11T18:28:58.756Z,5.40
2022-10-11T18:31:28.425Z,5.57
2022-10-11T18:33:55.418Z,5.33
2022-10-11T18:36:24.760Z,5.23
2022-10-11T18:38:57.818Z,5.50
2022-10-11T18:41:31.574Z,5.57
2022-10-11T18:44:02.181Z,5.17
2022-10-11T18:46:29.566Z,5.03
2022-10-11T18:48:57.444Z,5.37
2022-10-11T18:51:26.566Z,5.20
2022-10-11T18:53:54.020Z,5.00
2022-10-11T18:56:23.991Z,5.20
2022-10-11T18:58:52.485Z,5.60
2022-10-11T19:01:22.052Z,5.23
2022-10-11T19:03:52.553Z,5.23
2022-10-11T19:06:21.950Z,5.23
2022-10-11T19:08:51.176Z,5.30
2022-10-11T19:11:22.107Z,5.50
2022-10-11T19:13:58.186Z,5.70
2022-10-11T19:16:25.815Z,6.23
2022-10-11T19:18:53.272Z,6.10
2022-10-11T19:21:20.177Z,6.30
2022-10-11T19:23:48.115Z,6.00
2022-10-11T19:26:27.411Z,6.17
2022-10-11T19:28:59.334Z,5.90
2022-10-11T19:31:26.986Z,6.13
2022-10-11T19:33:54.268Z,5.60
2022-10-11T19:36:20.999Z,5.60
2022-10-11T19:38:50.148Z,6.20
2022-10-11T19:41:19.458Z,6.40
2022-10-11T19:43:46.794Z,6.17
2022-10-11T19:46:27.278Z,5.53
2022-10-11T19:49:02.696Z,5.87
2022-10-11T19:51:34.985Z,5.90
2022-10-11T19:54:07.223Z,5.80
2022-10-11T19:56:34.796Z,5.67
2022-10-11T19:59:02.060Z,5.73
2022-10-11T20:01:31.284Z,5.93
2022-10-11T20:04:02.193Z,6.03
2022-10-11T20:06:29.010Z,4.93
2022-10-11T20:09:23.909Z,5.70
2022-10-11T20:11:43.540Z,5.73
2022-10-11T20:14:10.223Z,5.83
2022-10-11T20:16:36.904Z,5.60
2022-10-11T20:19:03.918Z,5.87
2022-10-11T20:21:30.804Z,6.07
2022-10-11T20:24:00.721Z,6.80
2022-10-11T20:26:28.208Z,6.00
2022-10-11T20:28:56.285Z,5.93
2022-10-11T20:31:31.969Z,5.80
2022-10-11T20:34:01.977Z,6.10
2022-10-11T20:36:30.142Z,5.77
2022-10-11T20:38:58.628Z,5.93
2022-10-11T20:41:34.107Z,6.20
2022-10-11T20:44:01.727Z,6.33
2022-10-11T20:46:33.891Z,5.70
2022-10-11T20:49:03.454Z,5.83
2022-10-11T20:51:31.695Z,5.90
2022-10-11T20:53:59.235Z,5.73
2022-10-11T20:56:26.708Z,6.37
2022-10-11T20:58:57.793Z,6.70
2022-10-11T21:01:30.951Z,6.00
2022-10-11T21:03:59.786Z,5.70
2022-10-11T21:06:27.384Z,5.67
2022-10-11T21:08:59.066Z,5.80
2022-10-11T21:11:30.456Z,5.33
2022-10-11T21:13:59.193Z,7.77
2022-10-11T21:16:26.914Z,6.03
2022-10-11T21:18:55.162Z,5.50
2022-10-11T21:21:23.874Z,6.47
2022-10-11T21:23:57.593Z,5.40
2022-10-11T21:26:24.656Z,5.47
2022-10-11T21:28:51.648Z,5.80
2022-10-11T21:31:20.109Z,5.77
2022-10-11T21:33:46.985Z,5.47
2022-10-11T21:36:24.881Z,6.27
2022-10-11T21:38:52.352Z,5.80
2022-10-11T21:41:21.569Z,5.27
2022-10-11T21:43:48.969Z,5.80
2022-10-11T21:46:21.828Z,6.53
2022-10-11T21:48:50.072Z,6.10
2022-10-11T21:51:21.757Z,7.50
2022-10-11T21:53:48.475Z,6.53
2022-10-11T21:56:15.465Z,6.13
2022-10-11T21:58:42.275Z,6.40
2022-10-11T22:01:10.606Z,6.77
2022-10-11T22:03:37.321Z,7.07
2022-10-11T22:06:04.525Z,6.37
2022-10-11T22:08:31.714Z,6.80
2022-10-11T22:10:59.935Z,6.50
2022-10-11T22:13:28.923Z,6.43
2022-10-11T22:15:59.404Z,6.93
2022-10-11T22:18:27.357Z,7.03
2022-10-11T22:21:05.793Z,7.47
2022-10-11T22:23:32.767Z,6.67
2022-10-11T22:26:04.681Z,6.77
2022-10-11T22:28:31.447Z,6.93
2022-10-11T22:30:58.266Z,7.10
2022-10-11T22:33:24.994Z,6.83
2022-10-11T22:35:56.500Z,7.90
2022-10-11T22:38:24.106Z,7.97
2022-10-11T22:40:51.568Z,7.00
2022-10-11T22:43:18.406Z,6.67
2022-10-11T22:45:45.647Z,6.90
2022-10-11T22:48:12.800Z,7.37
2022-10-11T22:50:39.519Z,7.77
2022-10-11T22:53:07.635Z,7.83
2022-10-11T22:55:35.109Z,7.80
2022-10-11T22:58:01.922Z,7.87
2022-10-11T23:00:28.709Z,8.03
2022-10-11T23:02:55.488Z,8.13
2022-10-11T23:05:22.355Z,7.93
2022-10-11T23:07:49.406Z,7.63
2022-10-11T23:10:16.191Z,8.10
2022-10-11T23:12:43.510Z,9.07
2022-10-11T23:15:10.920Z,7.50
2022-10-11T23:17:38.187Z,8.23
2022-10-11T23:20:06.019Z,8.53
2022-10-11T23:22:32.763Z,7.87
2022-10-11T23:24:59.413Z,9.13
2022-10-11T23:27:26.183Z,8.60
2022-10-11T23:29:52.809Z,8.67
2022-10-11T23:32:19.536Z,8.63
2022-10-11T23:34:46.201Z,7.97
2022-10-11T23:37:12.897Z,7.83
2022-10-11T23:39:39.784Z,7.87
2022-10-11T23:42:06.488Z,8.70
2022-10-11T23:44:33.124Z,8.77
2022-10-11T23:46:59.813Z,8.77
2022-10-11T23:49:26.440Z,8.20
2022-10-11T23:51:53.086Z,9.00
2022-10-11T23:54:19.738Z,8.53
2022-10-11T23:56:46.373Z,9.43
2022-10-11T23:59:13.055Z,9.57
